sensor_id;sensor_type;location;lat;lon;timestamp;P1;durP1;ratioP1;P2;durP2;ratioP2
24557;SDS011;12726;49.148;8.582;2023-07-31T00:01:51;4.75;;;1.73;;
24557;SDS011;12726;49.148;8.582;2023-07-31T00:04:37;7.43;;;1.70;;
24557;SDS011;12726;49.148;8.582;2023-07-31T00:07:22;8.90;;;1.80;;
24557;SDS011;12726;49.148;8.582;2023-07-31T00:10:08;2.95;;;1.48;;
24557;SDS011;12726;49.148;8.582;2023-07-31T00:12:53;4.45;;;1.33;;
24557;SDS011;12726;49.148;8.582;2023-07-31T00:15:40;5.93;;;1.50;;
24557;SDS011;12726;49.148;8.582;2023-07-31T00:18:25;4.80;;;1.75;;
24557;SDS011;12726;49.148;8.582;2023-07-31T00:21:11;4.10;;;1.52;;
24557;SDS011;12726;49.148;8.582;2023-07-31T00:23:56;5.35;;;1.30;;
24557;SDS011;12726;49.148;8.582;2023-07-31T00:26:41;3.33;;;1.38;;
24557;SDS011;12726;49.148;8.582;2023-07-31T00:29:27;2.13;;;1.30;;
24557;SDS011;12726;49.148;8.582;2023-07-31T00:32:13;3.03;;;1.27;;
24557;SDS011;12726;49.148;8.582;2023-07-31T00:34:59;3.45;;;1.48;;
24557;SDS011;12726;49.148;8.582;2023-07-31T00:37:44;3.42;;;1.98;;
24557;SDS011;12726;49.148;8.582;2023-07-31T00:40:30;4.03;;;1.80;;
24557;SDS011;12726;49.148;8.582;2023-07-31T00:43:19;9.25;;;1.60;;
24557;SDS011;12726;49.148;8.582;2023-07-31T00:46:04;7.28;;;1.48;;
24557;SDS011;12726;49.148;8.582;2023-07-31T00:48:50;3.92;;;1.33;;
24557;SDS011;12726;49.148;8.582;2023-07-31T00:51:36;3.50;;;1.30;;
24557;SDS011;12726;49.148;8.582;2023-07-31T00:54:21;3.38;;;1.55;;
24557;SDS011;12726;49.148;8.582;2023-07-31T00:57:06;6.05;;;1.45;;
24557;SDS011;12726;49.148;8.582;2023-07-31T00:59:52;2.72;;;1.38;;
24557;SDS011;12726;49.148;8.582;2023-07-31T01:02:37;4.10;;;1.52;;
24557;SDS011;12726;49.148;8.582;2023-07-31T01:05:25;7.47;;;1.58;;
24557;SDS011;12726;49.148;8.582;2023-07-31T01:08:18;4.90;;;1.48;;
24557;SDS011;12726;49.148;8.582;2023-07-31T01:11:13;3.97;;;1.67;;
24557;SDS011;12726;49.148;8.582;2023-07-31T01:14:02;5.22;;;1.67;;
24557;SDS011;12726;49.148;8.582;2023-07-31T01:16:47;4.90;;;1.40;;
24557;SDS011;12726;49.148;8.582;2023-07-31T01:19:33;7.88;;;1.73;;
24557;SDS011;12726;49.148;8.582;2023-07-31T01:22:26;5.03;;;1.70;;
24557;SDS011;12726;49.148;8.582;2023-07-31T01:25:28;5.22;;;1.55;;
24557;SDS011;12726;49.148;8.582;2023-07-31T01:28:25;3.95;;;1.40;;
24557;SDS011;12726;49.148;8.582;2023-07-31T01:31:14;7.60;;;1.70;;
24557;SDS011;12726;49.148;8.582;2023-07-31T01:34:02;7.00;;;1.50;;
24557;SDS011;12726;49.148;8.582;2023-07-31T01:36:48;3.80;;;1.50;;
24557;SDS011;12726;49.148;8.582;2023-07-31T01:39:34;5.22;;;1.75;;
24557;SDS011;12726;49.148;8.582;2023-07-31T01:42:19;4.95;;;1.50;;
24557;SDS011;12726;49.148;8.582;2023-07-31T01:45:06;3.72;;;1.45;;
24557;SDS011;12726;49.148;8.582;2023-07-31T01:47:52;3.50;;;1.40;;
24557;SDS011;12726;49.148;8.582;2023-07-31T01:50:38;8.90;;;1.63;;
24557;SDS011;12726;49.148;8.582;2023-07-31T01:53:23;5.95;;;1.63;;
24557;SDS011;12726;49.148;8.582;2023-07-31T01:56:08;4.50;;;1.40;;
24557;SDS011;12726;49.148;8.582;2023-07-31T01:58:54;2.35;;;1.55;;
24557;SDS011;12726;49.148;8.582;2023-07-31T02:01:41;6.53;;;1.60;;
24557;SDS011;12726;49.148;8.582;2023-07-31T02:04:26;3.13;;;1.35;;
24557;SDS011;12726;49.148;8.582;2023-07-31T02:07:11;4.78;;;1.35;;
24557;SDS011;12726;49.148;8.582;2023-07-31T02:09:56;6.70;;;1.67;;
24557;SDS011;12726;49.148;8.582;2023-07-31T02:12:42;4.03;;;1.40;;
24557;SDS011;12726;49.148;8.582;2023-07-31T02:15:27;3.17;;;1.92;;
24557;SDS011;12726;49.148;8.582;2023-07-31T02:18:14;2.75;;;1.30;;
24557;SDS011;12726;49.148;8.582;2023-07-31T02:20:59;4.25;;;1.70;;
24557;SDS011;12726;49.148;8.582;2023-07-31T02:23:44;5.55;;;1.98;;
24557;SDS011;12726;49.148;8.582;2023-07-31T02:26:29;6.20;;;1.63;;
24557;SDS011;12726;49.148;8.582;2023-07-31T02:29:15;2.22;;;1.35;;
24557;SDS011;12726;49.148;8.582;2023-07-31T02:32:00;6.22;;;1.38;;
24557;SDS011;12726;49.148;8.582;2023-07-31T02:34:47;5.75;;;1.33;;
24557;SDS011;12726;49.148;8.582;2023-07-31T02:37:32;4.30;;;1.10;;
24557;SDS011;12726;49.148;8.582;2023-07-31T02:40:17;2.58;;;1.30;;
24557;SDS011;12726;49.148;8.582;2023-07-31T02:43:02;2.63;;;1.20;;
24557;SDS011;12726;49.148;8.582;2023-07-31T02:45:50;5.95;;;1.30;;
24557;SDS011;12726;49.148;8.582;2023-07-31T02:48:36;3.97;;;1.42;;
24557;SDS011;12726;49.148;8.582;2023-07-31T02:51:23;3.17;;;1.30;;
24557;SDS011;12726;49.148;8.582;2023-07-31T02:54:08;6.50;;;1.55;;
24557;SDS011;12726;49.148;8.582;2023-07-31T02:56:54;2.58;;;1.23;;
24557;SDS011;12726;49.148;8.582;2023-07-31T02:59:39;4.38;;;1.48;;
24557;SDS011;12726;49.148;8.582;2023-07-31T03:02:24;2.55;;;1.35;;
24557;SDS011;12726;49.148;8.582;2023-07-31T03:05:10;5.80;;;1.45;;
24557;SDS011;12726;49.148;8.582;2023-07-31T03:07:57;4.18;;;1.55;;
24557;SDS011;12726;49.148;8.582;2023-07-31T03:10:42;3.75;;;1.42;;
24557;SDS011;12726;49.148;8.582;2023-07-31T03:13:27;4.22;;;1.20;;
24557;SDS011;12726;49.148;8.582;2023-07-31T03:16:12;6.93;;;1.67;;
24557;SDS011;12726;49.148;8.582;2023-07-31T03:18:58;3.03;;;1.20;;
24557;SDS011;12726;49.148;8.582;2023-07-31T03:21:43;6.03;;;1.45;;
24557;SDS011;12726;49.148;8.582;2023-07-31T03:24:30;5.72;;;1.60;;
24557;SDS011;12726;49.148;8.582;2023-07-31T03:27:15;3.97;;;1.55;;
24557;SDS011;12726;49.148;8.582;2023-07-31T03:30:01;2.88;;;1.30;;
24557;SDS011;12726;49.148;8.582;2023-07-31T03:32:47;3.20;;;1.92;;
24557;SDS011;12726;49.148;8.582;2023-07-31T03:35:32;5.38;;;1.65;;
24557;SDS011;12726;49.148;8.582;2023-07-31T03:38:18;3.50;;;1.42;;
24557;SDS011;12726;49.148;8.582;2023-07-31T03:41:04;3.50;;;1.17;;
24557;SDS011;12726;49.148;8.582;2023-07-31T03:43:51;4.45;;;1.30;;
24557;SDS011;12726;49.148;8.582;2023-07-31T03:46:36;3.00;;;1.40;;
24557;SDS011;12726;49.148;8.582;2023-07-31T03:49:22;2.13;;;1.23;;
24557;SDS011;12726;49.148;8.582;2023-07-31T03:52:07;5.00;;;1.80;;
24557;SDS011;12726;49.148;8.582;2023-07-31T03:54:52;4.78;;;1.50;;
24557;SDS011;12726;49.148;8.582;2023-07-31T03:57:39;3.90;;;2.05;;
24557;SDS011;12726;49.148;8.582;2023-07-31T04:00:24;6.00;;;1.50;;
24557;SDS011;12726;49.148;8.582;2023-07-31T04:03:11;3.40;;;1.35;;
24557;SDS011;12726;49.148;8.582;2023-07-31T04:05:56;2.05;;;1.00;;
24557;SDS011;12726;49.148;8.582;2023-07-31T04:08:42;4.35;;;1.30;;
24557;SDS011;12726;49.148;8.582;2023-07-31T04:11:27;5.88;;;1.38;;
24557;SDS011;12726;49.148;8.582;2023-07-31T04:14:16;5.13;;;1.30;;
24557;SDS011;12726;49.148;8.582;2023-07-31T04:17:01;4.45;;;1.70;;
24557;SDS011;12726;49.148;8.582;2023-07-31T04:19:47;4.93;;;1.75;;
24557;SDS011;12726;49.148;8.582;2023-07-31T04:22:32;2.70;;;1.45;;
24557;SDS011;12726;49.148;8.582;2023-07-31T04:25:17;4.78;;;1.40;;
24557;SDS011;12726;49.148;8.582;2023-07-31T04:28:03;3.20;;;1.58;;
24557;SDS011;12726;49.148;8.582;2023-07-31T04:30:50;4.00;;;1.35;;
24557;SDS011;12726;49.148;8.582;2023-07-31T04:33:35;3.80;;;1.50;;
24557;SDS011;12726;49.148;8.582;2023-07-31T04:36:20;3.25;;;1.25;;
24557;SDS011;12726;49.148;8.582;2023-07-31T04:39:05;3.55;;;1.60;;
24557;SDS011;12726;49.148;8.582;2023-07-31T04:41:51;3.15;;;1.52;;
24557;SDS011;12726;49.148;8.582;2023-07-31T04:44:36;2.90;;;1.30;;
24557;SDS011;12726;49.148;8.582;2023-07-31T04:47:23;2.42;;;1.60;;
24557;SDS011;12726;49.148;8.582;2023-07-31T04:50:08;2.63;;;1.30;;
24557;SDS011;12726;49.148;8.582;2023-07-31T04:52:54;3.58;;;1.70;;
24557;SDS011;12726;49.148;8.582;2023-07-31T04:55:39;3.42;;;1.33;;
24557;SDS011;12726;49.148;8.582;2023-07-31T04:58:25;3.88;;;1.27;;
24557;SDS011;12726;49.148;8.582;2023-07-31T05:01:10;3.88;;;1.40;;
24557;SDS011;12726;49.148;8.582;2023-07-31T05:03:59;5.47;;;1.55;;
24557;SDS011;12726;49.148;8.582;2023-07-31T05:06:44;5.85;;;1.20;;
24557;SDS011;12726;49.148;8.582;2023-07-31T05:09:30;3.53;;;2.00;;
24557;SDS011;12726;49.148;8.582;2023-07-31T05:12:15;3.47;;;1.50;;
24557;SDS011;12726;49.148;8.582;2023-07-31T05:15:00;4.07;;;1.45;;
24557;SDS011;12726;49.148;8.582;2023-07-31T05:17:46;5.95;;;1.73;;
24557;SDS011;12726;49.148;8.582;2023-07-31T05:20:32;5.05;;;1.40;;
24557;SDS011;12726;49.148;8.582;2023-07-31T05:23:18;3.05;;;1.40;;
24557;SDS011;12726;49.148;8.582;2023-07-31T05:26:04;5.97;;;1.60;;
24557;SDS011;12726;49.148;8.582;2023-07-31T05:28:49;2.65;;;1.60;;
24557;SDS011;12726;49.148;8.582;2023-07-31T05:31:35;2.58;;;1.20;;
24557;SDS011;12726;49.148;8.582;2023-07-31T05:34:21;3.38;;;1.40;;
24557;SDS011;12726;49.148;8.582;2023-07-31T05:37:09;3.88;;;1.35;;
24557;SDS011;12726;49.148;8.582;2023-07-31T05:39:55;4.70;;;1.30;;
24557;SDS011;12726;49.148;8.582;2023-07-31T05:42:40;6.03;;;2.03;;
24557;SDS011;12726;49.148;8.582;2023-07-31T05:45:25;2.10;;;1.38;;
24557;SDS011;12726;49.148;8.582;2023-07-31T05:48:11;2.10;;;1.40;;
24557;SDS011;12726;49.148;8.582;2023-07-31T05:50:56;5.18;;;1.55;;
24557;SDS011;12726;49.148;8.582;2023-07-31T05:53:43;4.15;;;1.60;;
24557;SDS011;12726;49.148;8.582;2023-07-31T05:56:28;3.38;;;1.15;;
24557;SDS011;12726;49.148;8.582;2023-07-31T05:59:14;5.22;;;1.75;;
24557;SDS011;12726;49.148;8.582;2023-07-31T06:01:59;3.53;;;1.60;;
24557;SDS011;12726;49.148;8.582;2023-07-31T06:04:47;2.67;;;1.35;;
24557;SDS011;12726;49.148;8.582;2023-07-31T06:07:32;3.70;;;1.60;;
24557;SDS011;12726;49.148;8.582;2023-07-31T06:10:21;5.65;;;1.90;;
24557;SDS011;12726;49.148;8.582;2023-07-31T06:13:06;4.45;;;1.70;;
24557;SDS011;12726;49.148;8.582;2023-07-31T06:15:51;5.57;;;1.73;;
24557;SDS011;12726;49.148;8.582;2023-07-31T06:18:38;7.00;;;1.52;;
24557;SDS011;12726;49.148;8.582;2023-07-31T06:21:23;5.80;;;1.77;;
24557;SDS011;12726;49.148;8.582;2023-07-31T06:24:09;2.58;;;1.70;;
24557;SDS011;12726;49.148;8.582;2023-07-31T06:26:57;4.18;;;1.50;;
24557;SDS011;12726;49.148;8.582;2023-07-31T06:29:42;5.72;;;1.40;;
24557;SDS011;12726;49.148;8.582;2023-07-31T06:32:27;4.68;;;1.70;;
24557;SDS011;12726;49.148;8.582;2023-07-31T06:35:13;3.35;;;1.65;;
24557;SDS011;12726;49.148;8.582;2023-07-31T06:37:59;4.00;;;1.70;;
24557;SDS011;12726;49.148;8.582;2023-07-31T06:40:45;5.95;;;2.08;;
24557;SDS011;12726;49.148;8.582;2023-07-31T06:43:34;7.20;;;1.63;;
24557;SDS011;12726;49.148;8.582;2023-07-31T06:46:19;3.78;;;1.48;;
24557;SDS011;12726;49.148;8.582;2023-07-31T06:49:05;6.15;;;1.88;;
24557;SDS011;12726;49.148;8.582;2023-07-31T06:51:50;4.72;;;1.50;;
24557;SDS011;12726;49.148;8.582;2023-07-31T06:54:37;2.95;;;1.38;;
24557;SDS011;12726;49.148;8.582;2023-07-31T06:57:25;3.97;;;1.73;;
24557;SDS011;12726;49.148;8.582;2023-07-31T07:00:12;8.13;;;1.70;;
24557;SDS011;12726;49.148;8.582;2023-07-31T07:02:58;5.25;;;1.35;;
24557;SDS011;12726;49.148;8.582;2023-07-31T07:05:43;3.88;;;1.48;;
24557;SDS011;12726;49.148;8.582;2023-07-31T07:08:29;4.00;;;1.98;;
24557;SDS011;12726;49.148;8.582;2023-07-31T07:11:14;3.97;;;1.65;;
24557;SDS011;12726;49.148;8.582;2023-07-31T07:13:59;4.60;;;1.63;;
24557;SDS011;12726;49.148;8.582;2023-07-31T07:16:47;6.38;;;1.63;;
24557;SDS011;12726;49.148;8.582;2023-07-31T07:19:35;8.05;;;1.60;;
24557;SDS011;12726;49.148;8.582;2023-07-31T07:22:25;4.75;;;1.60;;
24557;SDS011;12726;49.148;8.582;2023-07-31T07:25:11;6.25;;;1.67;;
24557;SDS011;12726;49.148;8.582;2023-07-31T07:27:56;4.25;;;1.30;;
24557;SDS011;12726;49.148;8.582;2023-07-31T07:30:44;7.32;;;1.58;;
24557;SDS011;12726;49.148;8.582;2023-07-31T07:33:31;3.30;;;1.33;;
24557;SDS011;12726;49.148;8.582;2023-07-31T07:36:16;3.42;;;1.58;;
24557;SDS011;12726;49.148;8.582;2023-07-31T07:39:02;5.65;;;1.60;;
24557;SDS011;12726;49.148;8.582;2023-07-31T07:41:47;4.32;;;1.88;;
24557;SDS011;12726;49.148;8.582;2023-07-31T07:44:32;4.57;;;1.40;;
24557;SDS011;12726;49.148;8.582;2023-07-31T07:47:18;5.80;;;1.70;;
24557;SDS011;12726;49.148;8.582;2023-07-31T07:50:05;3.47;;;1.60;;
24557;SDS011;12726;49.148;8.582;2023-07-31T07:52:53;5.50;;;1.88;;
24557;SDS011;12726;49.148;8.582;2023-07-31T07:55:38;2.80;;;1.35;;
24557;SDS011;12726;49.148;8.582;2023-07-31T07:58:23;6.10;;;1.52;;
24557;SDS011;12726;49.148;8.582;2023-07-31T08:01:09;4.78;;;1.90;;
24557;SDS011;12726;49.148;8.582;2023-07-31T08:03:54;5.65;;;2.00;;
24557;SDS011;12726;49.148;8.582;2023-07-31T08:06:41;5.53;;;1.67;;
24557;SDS011;12726;49.148;8.582;2023-07-31T08:09:29;3.35;;;1.65;;
24557;SDS011;12726;49.148;8.582;2023-07-31T08:12:15;5.43;;;1.95;;
24557;SDS011;12726;49.148;8.582;2023-07-31T08:15:00;3.78;;;1.90;;
24557;SDS011;12726;49.148;8.582;2023-07-31T08:17:45;3.35;;;2.00;;
24557;SDS011;12726;49.148;8.582;2023-07-31T08:20:34;4.00;;;1.67;;
24557;SDS011;12726;49.148;8.582;2023-07-31T08:23:20;5.32;;;1.98;;
24557;SDS011;12726;49.148;8.582;2023-07-31T08:26:06;7.00;;;2.10;;
24557;SDS011;12726;49.148;8.582;2023-07-31T08:29:04;6.93;;;1.95;;
24557;SDS011;12726;49.148;8.582;2023-07-31T08:31:49;5.80;;;1.90;;
24557;SDS011;12726;49.148;8.582;2023-07-31T08:34:34;5.57;;;1.55;;
24557;SDS011;12726;49.148;8.582;2023-07-31T08:37:19;6.78;;;2.38;;
24557;SDS011;12726;49.148;8.582;2023-07-31T08:40:09;7.00;;;1.80;;
24557;SDS011;12726;49.148;8.582;2023-07-31T08:42:55;3.72;;;1.80;;
24557;SDS011;12726;49.148;8.582;2023-07-31T08:45:45;6.13;;;1.60;;
24557;SDS011;12726;49.148;8.582;2023-07-31T08:48:32;8.05;;;1.92;;
24557;SDS011;12726;49.148;8.582;2023-07-31T08:51:20;6.85;;;2.13;;
24557;SDS011;12726;49.148;8.582;2023-07-31T08:54:05;4.13;;;1.88;;
24557;SDS011;12726;49.148;8.582;2023-07-31T08:56:52;4.95;;;1.77;;
24557;SDS011;12726;49.148;8.582;2023-07-31T08:59:38;7.50;;;2.08;;
24557;SDS011;12726;49.148;8.582;2023-07-31T09:02:23;4.97;;;1.80;;
24557;SDS011;12726;49.148;8.582;2023-07-31T09:05:16;4.10;;;1.77;;
24557;SDS011;12726;49.148;8.582;2023-07-31T09:08:02;5.45;;;2.22;;
24557;SDS011;12726;49.148;8.582;2023-07-31T09:10:50;5.63;;;2.10;;
24557;SDS011;12726;49.148;8.582;2023-07-31T09:13:36;4.55;;;2.38;;
24557;SDS011;12726;49.148;8.582;2023-07-31T09:16:27;4.35;;;1.60;;
24557;SDS011;12726;49.148;8.582;2023-07-31T09:19:13;6.35;;;2.17;;
24557;SDS011;12726;49.148;8.582;2023-07-31T09:22:09;6.85;;;2.22;;
24557;SDS011;12726;49.148;8.582;2023-07-31T09:24:55;6.10;;;1.58;;
24557;SDS011;12726;49.148;8.582;2023-07-31T09:27:47;5.22;;;2.53;;
24557;SDS011;12726;49.148;8.582;2023-07-31T09:33:32;5.35;;;1.85;;
24557;SDS011;12726;49.148;8.582;2023-07-31T09:36:18;4.00;;;1.73;;
24557;SDS011;12726;49.148;8.582;2023-07-31T09:39:04;4.20;;;1.85;;
24557;SDS011;12726;49.148;8.582;2023-07-31T09:41:53;5.07;;;1.90;;
24557;SDS011;12726;49.148;8.582;2023-07-31T09:44:40;4.15;;;2.25;;
24557;SDS011;12726;49.148;8.582;2023-07-31T09:47:27;3.63;;;1.70;;
24557;SDS011;12726;49.148;8.582;2023-07-31T09:50:14;5.18;;;1.88;;
24557;SDS011;12726;49.148;8.582;2023-07-31T09:52:59;4.95;;;2.00;;
24557;SDS011;12726;49.148;8.582;2023-07-31T09:55:45;4.05;;;1.77;;
24557;SDS011;12726;49.148;8.582;2023-07-31T09:58:30;4.25;;;1.67;;
24557;SDS011;12726;49.148;8.582;2023-07-31T10:01:19;6.57;;;2.15;;
24557;SDS011;12726;49.148;8.582;2023-07-31T10:04:06;6.50;;;2.00;;
24557;SDS011;12726;49.148;8.582;2023-07-31T10:06:52;6.25;;;2.30;;
24557;SDS011;12726;49.148;8.582;2023-07-31T10:09:38;7.50;;;2.00;;
24557;SDS011;12726;49.148;8.582;2023-07-31T10:12:25;7.82;;;2.78;;
24557;SDS011;12726;49.148;8.582;2023-07-31T10:15:11;6.20;;;2.13;;
24557;SDS011;12726;49.148;8.582;2023-07-31T10:17:57;4.65;;;1.80;;
24557;SDS011;12726;49.148;8.582;2023-07-31T10:20:48;7.20;;;1.95;;
24557;SDS011;12726;49.148;8.582;2023-07-31T10:23:34;6.22;;;2.17;;
24557;SDS011;12726;49.148;8.582;2023-07-31T10:26:19;5.38;;;2.30;;
24557;SDS011;12726;49.148;8.582;2023-07-31T10:29:07;7.07;;;2.03;;
24557;SDS011;12726;49.148;8.582;2023-07-31T10:31:53;5.40;;;2.00;;
24557;SDS011;12726;49.148;8.582;2023-07-31T10:34:42;8.25;;;2.85;;
24557;SDS011;12726;49.148;8.582;2023-07-31T10:37:29;3.88;;;2.28;;
24557;SDS011;12726;49.148;8.582;2023-07-31T10:40:16;8.27;;;2.45;;
24557;SDS011;12726;49.148;8.582;2023-07-31T10:43:03;8.25;;;1.98;;
24557;SDS011;12726;49.148;8.582;2023-07-31T10:45:52;3.70;;;2.10;;
24557;SDS011;12726;49.148;8.582;2023-07-31T10:48:38;3.83;;;2.13;;
24557;SDS011;12726;49.148;8.582;2023-07-31T10:51:28;7.38;;;2.45;;
24557;SDS011;12726;49.148;8.582;2023-07-31T10:54:19;6.35;;;2.25;;
24557;SDS011;12726;49.148;8.582;2023-07-31T10:57:06;6.80;;;2.40;;
24557;SDS011;12726;49.148;8.582;2023-07-31T11:00:17;7.40;;;2.47;;
24557;SDS011;12726;49.148;8.582;2023-07-31T11:03:05;7.07;;;1.83;;
24557;SDS011;12726;49.148;8.582;2023-07-31T11:05:52;8.45;;;2.47;;
24557;SDS011;12726;49.148;8.582;2023-07-31T11:08:43;4.28;;;2.15;;
24557;SDS011;12726;49.148;8.582;2023-07-31T11:11:30;3.95;;;1.75;;
24557;SDS011;12726;49.148;8.582;2023-07-31T11:14:16;8.32;;;2.30;;
24557;SDS011;12726;49.148;8.582;2023-07-31T11:17:05;5.30;;;2.00;;
24557;SDS011;12726;49.148;8.582;2023-07-31T11:19:51;6.65;;;2.00;;
24557;SDS011;12726;49.148;8.582;2023-07-31T11:22:36;5.10;;;1.92;;
24557;SDS011;12726;49.148;8.582;2023-07-31T11:25:22;4.95;;;1.92;;
24557;SDS011;12726;49.148;8.582;2023-07-31T11:28:10;4.65;;;2.25;;
24557;SDS011;12726;49.148;8.582;2023-07-31T11:30:56;5.50;;;2.10;;
24557;SDS011;12726;49.148;8.582;2023-07-31T11:33:41;4.82;;;2.15;;
24557;SDS011;12726;49.148;8.582;2023-07-31T11:36:26;4.32;;;2.17;;
24557;SDS011;12726;49.148;8.582;2023-07-31T11:39:12;6.13;;;2.42;;
24557;SDS011;12726;49.148;8.582;2023-07-31T11:41:58;7.97;;;2.72;;
24557;SDS011;12726;49.148;8.582;2023-07-31T11:44:45;6.05;;;1.90;;
24557;SDS011;12726;49.148;8.582;2023-07-31T11:47:32;5.47;;;2.17;;
24557;SDS011;12726;49.148;8.582;2023-07-31T11:50:19;8.82;;;2.42;;
24557;SDS011;12726;49.148;8.582;2023-07-31T11:53:06;6.40;;;2.25;;
24557;SDS011;12726;49.148;8.582;2023-07-31T11:55:54;7.30;;;1.90;;
24557;SDS011;12726;49.148;8.582;2023-07-31T11:58:40;5.70;;;2.35;;
24557;SDS011;12726;49.148;8.582;2023-07-31T12:01:29;4.35;;;1.92;;
24557;SDS011;12726;49.148;8.582;2023-07-31T12:04:16;6.80;;;2.30;;
24557;SDS011;12726;49.148;8.582;2023-07-31T12:07:01;4.93;;;1.73;;
24557;SDS011;12726;49.148;8.582;2023-07-31T12:09:53;8.70;;;2.53;;
24557;SDS011;12726;49.148;8.582;2023-07-31T12:12:38;4.00;;;2.40;;
24557;SDS011;12726;49.148;8.582;2023-07-31T12:15:28;6.90;;;2.38;;
24557;SDS011;12726;49.148;8.582;2023-07-31T12:18:22;3.53;;;1.88;;
24557;SDS011;12726;49.148;8.582;2023-07-31T12:21:09;4.03;;;2.47;;
24557;SDS011;12726;49.148;8.582;2023-07-31T12:23:55;4.15;;;1.92;;
24557;SDS011;12726;49.148;8.582;2023-07-31T12:26:42;6.05;;;1.73;;
24557;SDS011;12726;49.148;8.582;2023-07-31T12:29:34;12.65;;;2.25;;
24557;SDS011;12726;49.148;8.582;2023-07-31T12:32:21;3.53;;;1.85;;
24557;SDS011;12726;49.148;8.582;2023-07-31T12:35:14;4.63;;;1.73;;
24557;SDS011;12726;49.148;8.582;2023-07-31T12:38:00;5.68;;;2.05;;
24557;SDS011;12726;49.148;8.582;2023-07-31T12:40:46;5.80;;;2.13;;
24557;SDS011;12726;49.148;8.582;2023-07-31T12:43:34;4.80;;;2.10;;
24557;SDS011;12726;49.148;8.582;2023-07-31T12:46:20;6.18;;;1.92;;
24557;SDS011;12726;49.148;8.582;2023-07-31T12:49:05;5.18;;;2.38;;
24557;SDS011;12726;49.148;8.582;2023-07-31T12:51:52;6.55;;;2.03;;
24557;SDS011;12726;49.148;8.582;2023-07-31T12:54:37;5.10;;;2.33;;
24557;SDS011;12726;49.148;8.582;2023-07-31T12:57:23;7.03;;;2.33;;
24557;SDS011;12726;49.148;8.582;2023-07-31T13:00:09;9.30;;;2.55;;
24557;SDS011;12726;49.148;8.582;2023-07-31T13:02:54;4.40;;;1.80;;
24557;SDS011;12726;49.148;8.582;2023-07-31T13:05:42;6.90;;;1.83;;
24557;SDS011;12726;49.148;8.582;2023-07-31T13:08:29;4.47;;;1.60;;
24557;SDS011;12726;49.148;8.582;2023-07-31T13:11:14;6.35;;;2.17;;
24557;SDS011;12726;49.148;8.582;2023-07-31T13:14:00;3.42;;;1.73;;
24557;SDS011;12726;49.148;8.582;2023-07-31T13:16:45;5.75;;;2.28;;
24557;SDS011;12726;49.148;8.582;2023-07-31T13:19:31;6.85;;;2.03;;
24557;SDS011;12726;49.148;8.582;2023-07-31T13:22:16;3.70;;;1.80;;
24557;SDS011;12726;49.148;8.582;2023-07-31T13:25:03;5.22;;;2.05;;
24557;SDS011;12726;49.148;8.582;2023-07-31T13:27:50;3.70;;;1.67;;
24557;SDS011;12726;49.148;8.582;2023-07-31T13:30:35;5.53;;;1.90;;
24557;SDS011;12726;49.148;8.582;2023-07-31T13:33:20;5.32;;;1.95;;
24557;SDS011;12726;49.148;8.582;2023-07-31T13:36:05;5.35;;;2.17;;
24557;SDS011;12726;49.148;8.582;2023-07-31T13:38:54;3.67;;;2.08;;
24557;SDS011;12726;49.148;8.582;2023-07-31T13:41:41;4.32;;;2.03;;
24557;SDS011;12726;49.148;8.582;2023-07-31T13:44:26;6.70;;;2.00;;
24557;SDS011;12726;49.148;8.582;2023-07-31T13:47:13;8.55;;;2.10;;
24557;SDS011;12726;49.148;8.582;2023-07-31T13:50:01;8.07;;;1.92;;
24557;SDS011;12726;49.148;8.582;2023-07-31T13:52:46;3.53;;;2.15;;
24557;SDS011;12726;49.148;8.582;2023-07-31T13:55:32;5.20;;;2.40;;
24557;SDS011;12726;49.148;8.582;2023-07-31T13:58:20;7.45;;;2.33;;
24557;SDS011;12726;49.148;8.582;2023-07-31T14:01:05;8.50;;;2.03;;
24557;SDS011;12726;49.148;8.582;2023-07-31T14:03:50;4.40;;;2.00;;
24557;SDS011;12726;49.148;8.582;2023-07-31T14:06:36;5.82;;;2.35;;
24557;SDS011;12726;49.148;8.582;2023-07-31T14:09:21;4.25;;;2.28;;
24557;SDS011;12726;49.148;8.582;2023-07-31T14:12:07;4.38;;;2.00;;
24557;SDS011;12726;49.148;8.582;2023-07-31T14:14:54;3.97;;;1.70;;
24557;SDS011;12726;49.148;8.582;2023-07-31T14:17:39;4.60;;;2.30;;
24557;SDS011;12726;49.148;8.582;2023-07-31T14:20:25;5.60;;;1.90;;
24557;SDS011;12726;49.148;8.582;2023-07-31T14:23:10;4.65;;;2.00;;
24557;SDS011;12726;49.148;8.582;2023-07-31T14:25:56;6.90;;;2.25;;
24557;SDS011;12726;49.148;8.582;2023-07-31T14:28:41;5.57;;;1.95;;
24557;SDS011;12726;49.148;8.582;2023-07-31T14:31:28;3.28;;;2.08;;
24557;SDS011;12726;49.148;8.582;2023-07-31T14:34:13;5.68;;;1.98;;
24557;SDS011;12726;49.148;8.582;2023-07-31T14:36:58;6.57;;;2.25;;
24557;SDS011;12726;49.148;8.582;2023-07-31T14:39:43;7.05;;;2.20;;
24557;SDS011;12726;49.148;8.582;2023-07-31T14:42:28;4.45;;;2.00;;
24557;SDS011;12726;49.148;8.582;2023-07-31T14:45:14;8.32;;;2.25;;
24557;SDS011;12726;49.148;8.582;2023-07-31T14:48:00;7.60;;;2.13;;
24557;SDS011;12726;49.148;8.582;2023-07-31T14:50:46;5.22;;;2.15;;
24557;SDS011;12726;49.148;8.582;2023-07-31T14:53:31;4.68;;;2.15;;
24557;SDS011;12726;49.148;8.582;2023-07-31T14:56:17;6.82;;;2.30;;
24557;SDS011;12726;49.148;8.582;2023-07-31T14:59:02;7.82;;;2.38;;
24557;SDS011;12726;49.148;8.582;2023-07-31T15:01:48;6.13;;;2.28;;
24557;SDS011;12726;49.148;8.582;2023-07-31T15:04:34;3.95;;;2.17;;
24557;SDS011;12726;49.148;8.582;2023-07-31T15:07:19;5.50;;;2.10;;
24557;SDS011;12726;49.148;8.582;2023-07-31T15:10:05;7.03;;;2.17;;
24557;SDS011;12726;49.148;8.582;2023-07-31T15:12:52;8.38;;;1.95;;
24557;SDS011;12726;49.148;8.582;2023-07-31T15:15:37;4.43;;;1.98;;
24557;SDS011;12726;49.148;8.582;2023-07-31T15:18:23;4.65;;;1.95;;
24557;SDS011;12726;49.148;8.582;2023-07-31T15:21:10;4.57;;;2.10;;
24557;SDS011;12726;49.148;8.582;2023-07-31T15:23:57;7.13;;;2.05;;
24557;SDS011;12726;49.148;8.582;2023-07-31T15:26:42;3.92;;;1.92;;
24557;SDS011;12726;49.148;8.582;2023-07-31T15:29:28;5.93;;;2.05;;
24557;SDS011;12726;49.148;8.582;2023-07-31T15:32:13;7.15;;;2.28;;
24557;SDS011;12726;49.148;8.582;2023-07-31T15:34:59;7.10;;;2.42;;
24557;SDS011;12726;49.148;8.582;2023-07-31T15:37:46;5.57;;;2.40;;
24557;SDS011;12726;49.148;8.582;2023-07-31T15:40:31;8.40;;;2.08;;
24557;SDS011;12726;49.148;8.582;2023-07-31T15:43:16;5.30;;;1.67;;
24557;SDS011;12726;49.148;8.582;2023-07-31T15:46:04;4.40;;;2.03;;
24557;SDS011;12726;49.148;8.582;2023-07-31T15:48:49;5.15;;;2.00;;
24557;SDS011;12726;49.148;8.582;2023-07-31T15:51:37;8.27;;;2.45;;
24557;SDS011;12726;49.148;8.582;2023-07-31T15:54:24;5.05;;;2.05;;
24557;SDS011;12726;49.148;8.582;2023-07-31T15:57:09;5.07;;;2.33;;
24557;SDS011;12726;49.148;8.582;2023-07-31T15:59:54;3.83;;;2.10;;
24557;SDS011;12726;49.148;8.582;2023-07-31T16:02:39;4.50;;;2.20;;
24557;SDS011;12726;49.148;8.582;2023-07-31T16:05:25;6.70;;;1.98;;
24557;SDS011;12726;49.148;8.582;2023-07-31T16:08:10;5.90;;;1.70;;
24557;SDS011;12726;49.148;8.582;2023-07-31T16:10:57;4.70;;;2.08;;
24557;SDS011;12726;49.148;8.582;2023-07-31T16:13:42;5.72;;;2.25;;
24557;SDS011;12726;49.148;8.582;2023-07-31T16:16:27;4.43;;;2.45;;
24557;SDS011;12726;49.148;8.582;2023-07-31T16:19:13;4.88;;;2.10;;
24557;SDS011;12726;49.148;8.582;2023-07-31T16:21:58;6.32;;;2.30;;
24557;SDS011;12726;49.148;8.582;2023-07-31T16:24:43;5.13;;;2.22;;
24557;SDS011;12726;49.148;8.582;2023-07-31T16:27:30;5.80;;;1.90;;
24557;SDS011;12726;49.148;8.582;2023-07-31T16:30:16;5.55;;;2.03;;
24557;SDS011;12726;49.148;8.582;2023-07-31T16:33:01;4.40;;;2.10;;
24557;SDS011;12726;49.148;8.582;2023-07-31T16:35:46;6.72;;;1.92;;
24557;SDS011;12726;49.148;8.582;2023-07-31T16:38:32;4.47;;;1.95;;
24557;SDS011;12726;49.148;8.582;2023-07-31T16:41:18;4.32;;;2.35;;
24557;SDS011;12726;49.148;8.582;2023-07-31T16:44:04;4.20;;;2.20;;
24557;SDS011;12726;49.148;8.582;2023-07-31T16:46:50;4.97;;;1.92;;